Time;durP1;ratioP1;P1;durP2;ratioP2;P2;SDS_P1;SDS_P2;PMS_P1;PMS_P2;Temp;Humidity;BMP_temperature;BMP_pressure;BME280_temperature;BME280_humidity;BME280_pressure;Samples;Min_cycle;Max_cycle;Signal;HPM_P1;HPM_P2
2022/11/17 00:01:34;;;;;;;11.27;4.10;;;;;;;5.97;87.77;100060.06;5035375;28;20439;-72
2022/11/17 00:04:00;;;;;;;7.80;4.00;;;;;;;5.89;87.68;100055.28;5034077;28;20486;-72
2022/11/17 00:06:27;;;;;;;10.00;4.33;;;;;;;5.93;88.07;100063.59;5035129;28;20447;-72
2022/11/17 00:08:53;;;;;;;10.97;5.10;;;;;;;5.95;88.49;100054.19;5033928;28;20483;-72
2022/11/17 00:11:21;;;;;;;14.57;4.97;;;;;;;5.99;87.56;100047.16;5035121;28;20483;-72
2022/11/17 00:16:32;;;;;;;9.50;4.40;;;;;;;5.91;86.96;100047.72;5034698;28;20495;-72
2022/11/17 00:21:43;;;;;;;12.03;4.20;;;;;;;5.90;87.95;100039.97;5034766;28;20501;-72
2022/11/17 00:24:09;;;;;;;14.07;5.30;;;;;;;5.79;88.39;100045.41;5033435;28;20523;-71
2022/11/17 00:27:00;;;;;;;11.90;5.20;;;;;;;5.78;89.27;100046.50;5034545;28;20461;-72
2022/11/17 00:29:24;;;;;;;10.63;4.90;;;;;;;5.79;88.90;100039.22;5033291;28;20483;-72
2022/11/17 00:34:36;;;;;;;11.60;5.20;;;;;;;5.68;89.16;100040.44;5033641;28;21047;-72
2022/11/17 00:37:03;;;;;;;12.37;5.83;;;;;;;5.67;89.10;100036.13;5033657;28;20463;-72
2022/11/17 00:39:29;;;;;;;15.47;5.70;;;;;;;5.65;89.63;100044.47;5034609;28;20522;-72
2022/11/17 00:41:58;;;;;;;15.30;5.37;;;;;;;5.55;89.82;100031.91;5033167;28;21007;-72
2022/11/17 00:44:25;;;;;;;12.50;5.80;;;;;;;5.52;89.99;100029.78;5033971;28;20478;-71
2022/11/17 00:46:51;;;;;;;9.23;4.47;;;;;;;5.59;89.41;100028.69;5033280;28;20550;-72
2022/11/17 00:49:20;;;;;;;13.10;5.90;;;;;;;5.61;88.97;100029.97;5034317;28;20491;-72
2022/11/17 00:51:47;;;;;;;10.60;4.37;;;;;;;5.64;89.22;100029.44;5033493;28;20459;-72
2022/11/17 00:54:14;;;;;;;18.27;6.03;;;;;;;5.56;88.69;100025.47;5034392;28;20439;-71
2022/11/17 00:56:40;;;;;;;13.67;5.07;;;;;;;5.54;88.45;100032.22;5032203;28;20471;-72
2022/11/17 00:59:09;;;;;;;12.40;5.40;;;;;;;5.54;88.65;100024.94;5034179;28;20449;-72
2022/11/17 01:01:36;;;;;;;8.83;4.30;;;;;;;5.61;88.37;100037.25;5032845;28;20463;-71
2022/11/17 01:04:03;;;;;;;12.60;5.47;;;;;;;5.62;87.97;100030.78;5034159;28;20471;-72
2022/11/17 01:06:32;;;;;;;9.43;5.00;;;;;;;5.50;88.09;100037.34;5033059;28;20843;-72
2022/11/17 01:08:59;;;;;;;11.33;5.03;;;;;;;5.42;87.82;100034.44;5032588;28;20570;-72
2022/11/17 01:11:26;;;;;;;11.67;5.30;;;;;;;5.42;88.31;100031.75;5033697;28;20450;-72
2022/11/17 01:13:55;;;;;;;13.80;5.83;;;;;;;5.38;88.35;100033.41;5033083;28;20483;-72
2022/11/17 01:16:23;;;;;;;10.67;4.40;;;;;;;5.36;89.07;100024.81;5033739;28;20893;-73
2022/11/17 01:18:51;;;;;;;10.47;4.80;;;;;;;5.24;89.59;100025.97;5032954;28;20474;-72
2022/11/17 01:21:19;;;;;;;10.33;4.60;;;;;;;5.34;89.92;100029.66;5033815;28;20482;-72
2022/11/17 01:23:47;;;;;;;10.70;4.87;;;;;;;5.38;89.41;100028.81;5032723;28;20483;-72
2022/11/17 01:26:16;;;;;;;14.83;5.27;;;;;;;5.40;88.91;100021.31;5031996;28;20490;-72
2022/11/17 01:28:43;;;;;;;11.37;5.17;;;;;;;5.36;88.69;100019.44;5032871;28;20519;-72
2022/11/17 01:31:12;;;;;;;12.97;5.50;;;;;;;5.30;89.59;100030.22;5033673;28;20449;-72
2022/11/17 01:33:40;;;;;;;12.90;4.33;;;;;;;5.43;89.15;100020.72;5032336;28;20514;-72
2022/11/17 01:36:10;;;;;;;9.90;4.80;;;;;;;5.42;88.35;100018.34;5033664;28;20447;-73
2022/11/17 01:38:37;;;;;;;10.07;4.50;;;;;;;5.48;88.20;100011.81;5032381;28;20875;-73
2022/11/17 01:41:06;;;;;;;8.37;4.70;;;;;;;5.48;87.59;100001.09;5033640;28;20482;-73
2022/11/17 01:43:37;;;;;;;11.60;4.87;;;;;;;5.50;87.78;100015.06;5032752;28;20596;-72
2022/11/17 01:46:04;;;;;;;17.50;5.50;;;;;;;5.41;87.72;100006.00;5032642;28;20491;-72
2022/11/17 01:48:31;;;;;;;12.70;5.53;;;;;;;5.34;87.68;100008.97;5032227;28;20459;-73
2022/11/17 01:50:59;;;;;;;11.73;5.00;;;;;;;5.31;87.19;99991.56;5033269;28;20944;-73
2022/11/17 01:53:27;;;;;;;9.60;4.87;;;;;;;5.33;87.77;100002.03;5032184;28;20514;-73
2022/11/17 01:55:57;;;;;;;10.80;4.80;;;;;;;5.36;88.16;99997.94;5033649;28;20449;-72
2022/11/17 01:58:28;;;;;;;13.13;5.10;;;;;;;5.42;87.37;99999.53;5032420;28;20485;-72
2022/11/17 02:00:55;;;;;;;12.80;5.50;;;;;;;5.32;87.20;100001.22;5033262;28;20439;-73
2022/11/17 02:03:24;;;;;;;12.70;5.23;;;;;;;5.29;87.95;99987.53;5032323;28;20510;-72
2022/11/17 02:05:55;;;;;;;9.57;4.60;;;;;;;5.30;88.01;100006.06;5033308;28;20471;-73
2022/11/17 02:08:28;;;;;;;8.97;4.67;;;;;;;5.26;88.24;99998.84;5032319;28;20466;-72
2022/11/17 02:10:55;;;;;;;18.83;4.90;;;;;;;5.24;88.16;99999.13;5033326;28;20515;-73
2022/11/17 02:13:23;;;;;;;11.70;4.93;;;;;;;5.26;88.05;100002.31;5031877;28;20493;-73
2022/11/17 02:15:50;;;;;;;13.37;4.97;;;;;;;5.25;88.07;99991.88;5030482;28;20561;-74
2022/11/17 02:18:17;;;;;;;11.27;4.27;;;;;;;5.20;88.50;99992.72;5032167;28;20530;-73
2022/11/17 02:20:59;;;;;;;10.10;4.37;;;;;;;5.20;88.36;99984.66;5032909;28;20944;-72
2022/11/17 02:23:53;;;;;;;9.40;4.87;;;;;;;5.19;88.06;99988.44;5033280;28;20837;-72
2022/11/17 02:26:54;;;;;;;10.20;5.00;;;;;;;5.17;88.47;99985.22;5032365;28;20455;-73
2022/11/17 02:29:30;;;;;;;7.80;3.83;;;;;;;5.19;88.74;99987.63;5032097;28;20477;-72
2022/11/17 02:32:04;;;;;;;9.67;4.67;;;;;;;5.19;88.37;99988.44;5032935;28;20991;-72
2022/11/17 02:34:37;;;;;;;9.47;5.00;;;;;;;5.21;88.47;99983.56;5032360;28;20827;-72
2022/11/17 02:37:09;;;;;;;13.00;4.50;;;;;;;5.22;87.32;99982.50;5033080;28;20465;-72
2022/11/17 02:39:43;;;;;;;10.07;4.93;;;;;;;5.25;87.17;99970.41;5035874;28;20477;-72
2022/11/17 02:42:14;;;;;;;11.83;5.40;;;;;;;5.22;87.40;99961.03;5036707;28;20546;-72
2022/11/17 02:44:48;;;;;;;11.20;4.70;;;;;;;5.22;87.08;99955.66;5035682;28;21023;-72
2022/11/17 02:47:20;;;;;;;9.97;4.53;;;;;;;5.07;87.69;99958.44;5036559;28;20517;-71
2022/11/17 02:49:53;;;;;;;13.17;5.47;;;;;;;5.16;87.46;99959.44;5035690;28;20470;-72
2022/11/17 02:52:21;;;;;;;12.20;5.03;;;;;;;5.09;87.42;99961.66;5035386;28;20561;-72
2022/11/17 02:54:47;;;;;;;10.80;4.67;;;;;;;5.11;88.37;99954.13;5036331;28;20880;-72
2022/11/17 02:57:30;;;;;;;12.63;5.40;;;;;;;5.17;88.33;99944.94;5035477;28;20490;-72
2022/11/17 03:00:00;;;;;;;13.13;5.40;;;;;;;5.15;88.33;99951.69;5034798;28;21027;-71
2022/11/17 03:02:41;;;;;;;10.43;5.43;;;;;;;5.18;88.00;99943.88;5035371;28;20483;-73
2022/11/17 03:05:14;;;;;;;13.70;5.00;;;;;;;5.14;88.31;99953.56;5036541;28;20880;-72
2022/11/17 03:07:57;;;;;;;11.47;4.30;;;;;;;5.12;88.19;99953.03;5034585;28;20481;-73
2022/11/17 03:10:35;;;;;;;9.57;4.83;;;;;;;5.18;87.90;99954.63;5036199;28;20558;-73
2022/11/17 03:13:11;;;;;;;10.70;5.80;;;;;;;5.18;87.84;99951.94;5016378;28;20503;-73
2022/11/17 03:15:50;;;;;;;10.97;4.63;;;;;;;5.13;88.24;99938.53;5016529;28;20463;-74
2022/11/17 03:18:22;;;;;;;9.53;4.20;;;;;;;5.18;88.36;99948.44;5035014;28;20983;-73
2022/11/17 03:20:58;;;;;;;11.90;5.20;;;;;;;5.15;88.03;99936.38;5036240;28;20470;-73
2022/11/17 03:23:31;;;;;;;13.57;5.90;;;;;;;5.18;87.85;99945.75;5035037;28;20561;-73
2022/11/17 03:26:00;;;;;;;12.80;4.87;;;;;;;5.13;87.05;99946.59;5035853;28;20537;-73
2022/11/17 03:28:30;;;;;;;10.23;4.97;;;;;;;5.14;87.71;99945.53;5034611;28;20946;-73
2022/11/17 03:30:59;;;;;;;12.83;5.30;;;;;;;5.16;87.02;99945.22;5036467;28;21059;-72
2022/11/17 03:33:28;;;;;;;12.40;5.90;;;;;;;5.18;87.10;99949.25;5035584;28;20537;-73
2022/11/17 03:36:01;;;;;;;13.53;5.80;;;;;;;5.13;87.13;99951.16;5036992;28;20485;-72
2022/11/17 03:38:33;;;;;;;13.00;5.67;;;;;;;5.11;88.16;99948.75;5035778;28;20486;-73
2022/11/17 03:41:03;;;;;;;13.83;6.20;;;;;;;5.05;87.82;99949.88;5036729;28;20822;-72
2022/11/17 03:43:31;;;;;;;9.93;4.43;;;;;;;5.01;88.56;99944.28;5037177;28;20511;-71
2022/11/17 03:46:05;;;;;;;9.27;4.37;;;;;;;5.04;88.76;99946.38;5037527;28;20443;-73
2022/11/17 03:48:37;;;;;;;20.70;5.43;;;;;;;5.10;88.08;99952.53;5035793;28;20455;-73
2022/11/17 03:51:08;;;;;;;12.27;5.60;;;;;;;5.21;88.38;99942.50;5015983;28;20478;-72
2022/11/17 03:53:36;;;;;;;11.47;5.00;;;;;;;5.20;87.67;99940.91;5019623;28;20567;-72
2022/11/17 03:56:11;;;;;;;8.90;4.27;;;;;;;5.22;87.75;99936.03;5036985;28;20447;-72
2022/11/17 03:58:46;;;;;;;12.53;4.70;;;;;;;5.29;87.62;99934.66;5034953;28;20455;-74
2022/11/17 04:01:15;;;;;;;12.83;5.97;;;;;;;5.34;87.30;99933.00;5036409;28;20469;-73
2022/11/17 04:03:41;;;;;;;13.33;4.40;;;;;;;5.24;87.44;99932.00;5035770;28;20489;-73
2022/11/17 04:06:08;;;;;;;12.63;4.77;;;;;;;5.36;87.04;99928.97;5037425;28;20490;-72
2022/11/17 04:08:35;;;;;;;13.97;4.60;;;;;;;5.36;87.64;99928.97;5035390;28;20463;-67
2022/11/17 04:16:36;;;;;;;9.20;4.67;;;;;;;5.37;86.46;99932.44;5035673;28;20457;-71
2022/11/17 04:19:03;;;;;;;13.07;4.90;;;;;;;5.30;86.78;99925.50;5033703;28;20896;-70
2022/11/17 04:21:30;;;;;;;11.80;5.50;;;;;;;5.25;87.69;99920.19;5034611;28;20515;-70
2022/11/17 04:23:57;;;;;;;11.57;5.50;;;;;;;5.20;86.81;99914.06;5034281;28;20562;-71
2022/11/17 04:29:08;;;;;;;12.63;6.37;;;;;;;5.21;87.47;99919.13;5033536;28;20453;-70
2022/11/17 04:31:36;;;;;;;13.17;5.33;;;;;;;5.17;87.95;99926.16;5034833;28;20574;-70
2022/11/17 04:34:04;;;;;;;11.87;5.13;;;;;;;5.17;88.11;99915.41;5033544;28;20487;-70
2022/11/17 04:36:34;;;;;;;13.23;6.30;;;;;;;5.22;88.57;99909.19;5034777;28;20451;-71
2022/11/17 04:39:02;;;;;;;12.47;5.53;;;;;;;5.22;88.51;99904.66;5033464;28;20459;-69
2022/11/17 04:44:15;;;;;;;17.50;6.57;;;;;;;5.19;88.86;99902.53;5033272;28;20453;-70
2022/11/17 04:46:44;;;;;;;12.27;5.90;;;;;;;5.28;88.85;99903.50;5034587;28;20489;-71
2022/11/17 04:49:12;;;;;;;10.10;4.90;;;;;;;5.31;88.89;99908.31;5033137;28;20944;-71
2022/11/17 04:51:39;;;;;;;12.00;5.90;;;;;;;5.29;89.00;99897.06;5033522;28;20518;-71
2022/11/17 04:54:07;;;;;;;11.33;5.17;;;;;;;5.32;88.84;99890.34;5032998;28;20515;-71
2022/11/17 04:56:34;;;;;;;13.07;7.00;;;;;;;5.34;88.58;99895.41;5034398;28;20541;-70
2022/11/17 04:59:00;;;;;;;11.70;5.47;;;;;;;5.41;88.76;99895.88;5032990;28;20451;-71
2022/11/17 05:01:29;;;;;;;14.63;6.60;;;;;;;5.42;88.56;99895.59;5034000;28;20948;-70
2022/11/17 05:03:58;;;;;;;12.37;5.30;;;;;;;5.44;88.31;99890.72;5033414;28;20530;-71
2022/11/17 05:06:27;;;;;;;11.43;5.40;;;;;;;5.40;88.12;99899.63;5034233;28;20470;-71
2022/11/17 05:08:55;;;;;;;11.00;6.13;;;;;;;5.28;87.65;99895.47;5033586;28;20465;-72
2022/11/17 05:14:07;;;;;;;12.80;6.87;;;;;;;5.21;89.13;99894.19;5034420;28;20447;-72
2022/11/17 05:19:23;;;;;;;13.07;6.17;;;;;;;5.17;88.82;99880.50;5033569;28;20466;-72
2022/11/17 05:21:50;;;;;;;11.40;6.13;;;;;;;5.17;89.09;99882.41;5014231;28;20467;-72
2022/11/17 05:24:16;;;;;;;12.03;6.70;;;;;;;5.22;89.06;99885.88;5017023;28;20463;-72
2022/11/17 05:26:44;;;;;;;13.77;7.13;;;;;;;5.22;90.16;99877.81;5034105;28;20450;-71
2022/11/17 05:29:13;;;;;;;14.03;6.13;;;;;;;5.18;90.08;99881.31;5033001;28;20510;-71
2022/11/17 05:31:41;;;;;;;15.63;6.17;;;;;;;5.26;89.90;99880.72;5032991;28;20491;-73
2022/11/17 05:34:09;;;;;;;13.57;6.13;;;;;;;5.28;89.70;99875.88;5035240;28;20548;-72
2022/11/17 05:36:37;;;;;;;16.70;6.87;;;;;;;5.26;90.28;99859.22;5033633;28;20482;-72
2022/11/17 05:39:04;;;;;;;12.23;6.20;;;;;;;5.32;90.00;99866.16;5033411;28;20451;-72
2022/11/17 05:41:31;;;;;;;15.17;6.87;;;;;;;5.32;90.01;99863.47;5032636;28;20530;-72
2022/11/17 05:43:59;;;;;;;13.13;6.10;;;;;;;5.34;89.72;99869.34;5029239;28;20482;-73
2022/11/17 05:46:26;;;;;;;14.43;7.13;;;;;;;5.42;89.75;99859.88;5021212;28;20542;-65
2022/11/17 05:48:53;;;;;;;13.93;5.90;;;;;;;5.38;89.76;99869.59;5031322;28;20545;-66
2022/11/17 05:51:21;;;;;;;15.27;6.70;;;;;;;5.30;89.64;99871.00;5032226;28;20482;-72
2022/11/17 05:53:50;;;;;;;15.33;5.97;;;;;;;5.33;90.23;99867.75;5032372;28;20579;-73
2022/11/17 05:56:28;;;;;;;19.53;7.60;;;;;;;5.37;89.66;99855.38;5031122;28;20491;-73
2022/11/17 05:59:01;;;;;;;14.57;7.10;;;;;;;5.41;89.62;99860.97;5032543;28;20803;-73
2022/11/17 06:01:29;;;;;;;14.40;6.73;;;;;;;5.29;89.75;99864.84;5032290;28;21028;-73
2022/11/17 06:04:01;;;;;;;13.17;6.20;;;;;;;5.32;89.49;99863.47;5032107;28;20522;-73
2022/11/17 06:06:28;;;;;;;14.53;6.83;;;;;;;5.35;88.97;99864.78;5013629;28;20432;-72
2022/11/17 06:08:57;;;;;;;13.93;6.93;;;;;;;5.30;89.41;99854.88;5016781;28;21020;-73
2022/11/17 06:11:23;;;;;;;13.07;5.93;;;;;;;5.29;89.74;99856.78;5033381;28;20519;-69
2022/11/17 06:13:50;;;;;;;19.87;6.90;;;;;;;5.41;89.22;99859.09;5034366;28;20567;-72
2022/11/17 06:16:19;;;;;;;18.60;6.83;;;;;;;5.44;88.87;99849.66;5037280;28;20490;-71
2022/11/17 06:18:50;;;;;;;17.27;6.70;;;;;;;5.38;88.84;99851.59;5034093;28;20487;-73
2022/11/17 06:21:17;;;;;;;14.43;5.73;;;;;;;5.41;89.18;99851.03;5032309;28;20827;-72
2022/11/17 06:23:46;;;;;;;16.07;6.40;;;;;;;5.45;89.56;99851.28;5036730;28;21019;-70
2022/11/17 06:26:15;;;;;;;15.43;7.37;;;;;;;5.49;89.71;99849.59;5034446;28;20545;-71
2022/11/17 06:28:45;;;;;;;15.80;6.60;;;;;;;5.44;90.10;99841.59;5036892;28;21016;-72
2022/11/17 06:31:13;;;;;;;10.33;5.37;;;;;;;5.44;90.32;99836.22;5037309;28;20492;-71
2022/11/17 06:33:39;;;;;;;12.90;5.33;;;;;;;5.49;90.28;99841.53;5036597;28;20513;-72
2022/11/17 06:36:08;;;;;;;12.97;5.90;;;;;;;5.53;89.60;99838.03;5036800;28;20539;-72
2022/11/17 06:38:35;;;;;;;13.53;7.10;;;;;;;5.50;89.80;99838.56;5036833;28;20449;-73
2022/11/17 06:41:02;;;;;;;15.33;6.30;;;;;;;5.55;89.82;99845.78;5037034;28;20435;-72
2022/11/17 06:43:30;;;;;;;13.63;6.30;;;;;;;5.56;89.78;99836.63;5036821;28;20467;-72
2022/11/17 06:46:01;;;;;;;11.73;5.60;;;;;;;5.54;89.78;99839.63;5036850;28;20471;-72
2022/11/17 06:48:27;;;;;;;12.33;5.50;;;;;;;5.53;89.91;99838.03;5036544;28;20526;-72
2022/11/17 06:50:54;;;;;;;13.80;6.37;;;;;;;5.57;89.29;99827.47;5036627;28;20537;-72
2022/11/17 06:53:25;;;;;;;16.20;6.07;;;;;;;5.60;89.59;99826.91;5036392;28;20992;-72
2022/11/17 06:55:53;;;;;;;14.27;5.43;;;;;;;5.60;88.86;99823.44;5036550;28;20431;-72
2022/11/17 06:58:20;;;;;;;13.53;6.87;;;;;;;5.64;88.78;99827.94;5036862;28;20454;-72
2022/11/17 07:00:48;;;;;;;15.00;6.33;;;;;;;5.67;88.61;99818.53;5036480;28;20467;-67
2022/11/17 07:03:14;;;;;;;15.20;5.40;;;;;;;5.64;88.78;99825.25;5036311;28;20459;-71
2022/11/17 07:05:41;;;;;;;12.60;5.40;;;;;;;5.62;88.20;99819.34;5036164;28;20474;-71
2022/11/17 07:08:09;;;;;;;15.97;6.30;;;;;;;5.58;89.07;99815.66;5036121;28;20945;-70
2022/11/17 07:10:36;;;;;;;15.30;7.17;;;;;;;5.57;88.82;99814.84;5035985;28;20514;-71
2022/11/17 07:13:03;;;;;;;10.23;5.30;;;;;;;5.51;88.96;99813.31;5035779;28;20545;-71
2022/11/17 07:15:30;;;;;;;14.07;6.27;;;;;;;5.62;88.86;99805.94;5036051;28;21008;-71
2022/11/17 07:17:58;;;;;;;14.67;6.80;;;;;;;5.60;89.11;99808.09;5035997;28;20869;-71
2022/11/17 07:20:25;;;;;;;14.60;5.60;;;;;;;5.57;88.90;99814.84;5036206;28;20467;-70
2022/11/17 07:22:51;;;;;;;12.53;5.80;;;;;;;5.56;89.49;99812.47;5035986;28;20473;-71
2022/11/17 07:25:18;;;;;;;15.17;6.63;;;;;;;5.71;89.38;99814.97;5035667;28;20538;-71
2022/11/17 07:27:44;;;;;;;10.10;5.70;;;;;;;5.77;89.43;99810.34;5036098;28;20494;-71
2022/11/17 07:30:12;;;;;;;12.07;6.17;;;;;;;5.81;88.71;99820.22;5035571;28;20493;-71
2022/11/17 07:32:39;;;;;;;14.00;5.90;;;;;;;5.76;88.38;99817.59;5035607;28;20475;-71
2022/11/17 07:35:08;;;;;;;17.53;6.40;;;;;;;5.74;88.29;99821.66;5035620;28;20538;-71
2022/11/17 07:37:35;;;;;;;13.43;5.83;;;;;;;5.74;88.53;99818.94;5035663;28;20525;-71
2022/11/17 07:40:01;;;;;;;12.33;6.33;;;;;;;5.79;88.89;99826.94;5035858;28;20542;-71
2022/11/17 07:42:28;;;;;;;19.27;5.97;;;;;;;5.73;88.26;99817.38;5035853;28;20460;-71
2022/11/17 07:44:54;;;;;;;13.53;5.97;;;;;;;5.72;88.34;99816.56;5035683;28;20469;-71
2022/11/17 07:47:21;;;;;;;13.33;6.20;;;;;;;5.70;88.13;99818.72;5035571;28;20479;-70
2022/11/17 07:49:47;;;;;;;12.30;5.77;;;;;;;5.68;87.83;99820.13;5035194;28;20483;-70
2022/11/17 07:52:15;;;;;;;12.93;6.13;;;;;;;5.73;88.27;99828.09;5034897;28;21055;-68
2022/11/17 07:54:42;;;;;;;12.10;5.10;;;;;;;5.74;87.33;99819.75;5035265;28;20432;-70
2022/11/17 07:57:08;;;;;;;15.30;6.33;;;;;;;5.85;87.10;99816.97;5035321;28;20447;-70
2022/11/17 07:59:35;;;;;;;12.47;5.50;;;;;;;5.87;86.73;99825.53;5035298;28;20484;-71
2022/11/17 08:02:01;;;;;;;15.50;5.40;;;;;;;5.85;87.28;99817.75;5035201;28;20471;-70
2022/11/17 08:04:28;;;;;;;10.20;5.10;;;;;;;5.87;87.11;99818.25;5035097;28;20534;-69
2022/11/17 08:06:55;;;;;;;12.00;5.30;;;;;;;5.91;87.02;99816.59;5035051;28;20446;-70
2022/11/17 08:09:22;;;;;;;13.00;4.70;;;;;;;5.94;87.03;99809.88;5035007;28;20882;-70
2022/11/17 08:11:50;;;;;;;15.03;4.97;;;;;;;6.00;86.60;99809.50;5034782;28;20490;-69
2022/11/17 08:14:17;;;;;;;8.47;4.00;;;;;;;5.99;86.11;99820.56;5035033;28;20534;-70
2022/11/17 08:16:43;;;;;;;9.53;4.20;;;;;;;5.97;86.13;99804.69;5034726;28;20470;-70
2022/11/17 08:19:10;;;;;;;14.47;5.47;;;;;;;6.03;86.18;99810.84;5034927;28;20443;-70
2022/11/17 08:21:37;;;;;;;10.80;5.03;;;;;;;5.95;86.15;99806.88;5034958;28;20453;-70
2022/11/17 08:24:04;;;;;;;13.63;4.40;;;;;;;6.01;86.50;99807.63;5034702;28;20469;-72
2022/11/17 08:26:32;;;;;;;11.63;4.57;;;;;;;6.12;85.83;99797.53;5034886;28;20471;-71
2022/11/17 08:29:00;;;;;;;11.57;4.80;;;;;;;6.08;85.63;99800.00;5034604;28;20439;-67
2022/11/17 08:31:27;;;;;;;12.50;4.60;;;;;;;5.99;85.79;99801.75;5034175;28;20493;-66
2022/11/17 08:33:54;;;;;;;11.10;4.70;;;;;;;6.06;85.25;99791.41;5033929;28;20513;-66
2022/11/17 08:36:21;;;;;;;11.07;4.80;;;;;;;6.14;85.19;99789.97;5033771;28;20455;-65
2022/11/17 08:38:47;;;;;;;9.37;4.03;;;;;;;6.21;84.88;99782.34;5034391;28;20443;-68
2022/11/17 08:41:14;;;;;;;11.10;4.67;;;;;;;6.20;84.46;99786.13;5034186;28;20878;-66
2022/11/17 08:43:42;;;;;;;9.03;4.53;;;;;;;6.21;84.93;99783.13;5034162;28;20550;-66
2022/11/17 08:46:11;;;;;;;10.30;4.30;;;;;;;6.26;84.52;99785.75;5033893;28;20530;-66
2022/11/17 08:48:37;;;;;;;12.50;5.13;;;;;;;6.23;84.80;99791.69;5034066;28;20529;-66
2022/11/17 08:51:05;;;;;;;10.47;4.77;;;;;;;6.26;84.64;99779.56;5032438;28;20517;-66
2022/11/17 08:53:32;;;;;;;11.87;4.70;;;;;;;6.28;84.23;99788.94;5030634;28;20875;-67
2022/11/17 08:55:59;;;;;;;13.40;5.27;;;;;;;6.27;84.87;99791.94;5032391;28;20462;-67
2022/11/17 08:58:25;;;;;;;13.73;4.80;;;;;;;6.37;83.88;99791.75;5033055;28;20465;-67
2022/11/17 09:00:53;;;;;;;9.30;4.20;;;;;;;6.36;83.60;99789.38;5034021;28;20442;-66
2022/11/17 09:03:20;;;;;;;17.33;6.00;;;;;;;6.27;83.96;99792.72;5032807;28;20490;-69
2022/11/17 09:05:47;;;;;;;13.07;4.57;;;;;;;6.27;84.56;99798.09;5032452;28;20495;-68
2022/11/17 09:08:13;;;;;;;13.00;5.13;;;;;;;6.27;83.95;99795.41;5033135;28;20471;-69
2022/11/17 09:10:40;;;;;;;8.30;4.23;;;;;;;6.38;84.05;99797.97;5031754;28;20487;-68
2022/11/17 09:13:08;;;;;;;10.40;4.10;;;;;;;6.43;83.95;99800.56;5032711;28;21035;-71
2022/11/17 09:15:34;;;;;;;11.17;4.60;;;;;;;6.31;83.77;99801.81;5033066;28;20821;-71
2022/11/17 09:18:02;;;;;;;12.47;4.97;;;;;;;6.26;84.32;99801.88;5033867;28;20816;-71
2022/11/17 09:20:30;;;;;;;27.07;4.33;;;;;;;6.28;84.45;99807.75;5032544;28;20443;-70
2022/11/17 09:23:00;;;;;;;13.80;5.43;;;;;;;6.25;84.80;99826.38;5032649;28;20479;-69
2022/11/17 09:25:26;;;;;;;14.20;5.17;;;;;;;6.30;84.02;99808.28;5032581;28;20438;-70
2022/11/17 09:27:53;;;;;;;12.50;4.60;;;;;;;6.38;84.13;99816.78;5030920;28;20443;-71
2022/11/17 09:30:21;;;;;;;11.73;5.27;;;;;;;6.27;83.97;99813.44;5032427;28;20493;-70
2022/11/17 09:32:47;;;;;;;10.87;4.93;;;;;;;6.21;84.37;99803.84;5030064;28;20537;-72
2022/11/17 09:35:16;;;;;;;14.50;5.60;;;;;;;6.27;84.62;99813.44;5033532;28;20477;-71
2022/11/17 09:37:42;;;;;;;13.17;6.00;;;;;;;6.21;84.00;99809.25;5032766;28;20466;-70
2022/11/17 09:40:13;;;;;;;12.37;4.77;;;;;;;6.22;84.45;99802.75;5033247;28;20481;-70
2022/11/17 09:42:41;;;;;;;7.97;4.00;;;;;;;6.20;84.76;99811.13;5031150;28;20470;-71
2022/11/17 09:45:15;;;;;;;17.03;5.63;;;;;;;6.17;85.25;99809.00;5032296;28;20817;-70
2022/11/17 09:47:47;;;;;;;14.07;6.97;;;;;;;6.14;85.40;99798.81;5028591;28;20474;-70
2022/11/17 09:50:22;;;;;;;13.60;5.57;;;;;;;6.06;85.71;99786.03;5031612;28;20923;-70
2022/11/17 09:52:58;;;;;;;17.13;5.50;;;;;;;6.14;86.29;99798.03;5013315;28;21051;-70
2022/11/17 09:55:29;;;;;;;16.93;5.93;;;;;;;6.21;86.17;99799.28;5018330;28;20454;-71
2022/11/17 09:58:06;;;;;;;12.57;5.03;;;;;;;6.22;85.70;99800.88;5031032;28;20538;-71
2022/11/17 10:00:36;;;;;;;11.47;5.83;;;;;;;6.16;86.04;99796.66;5033210;28;20434;-71
2022/11/17 10:03:14;;;;;;;15.00;6.00;;;;;;;6.14;85.76;99798.81;5032641;28;20843;-71
2022/11/17 10:05:42;;;;;;;17.37;5.53;;;;;;;6.12;85.84;99792.16;5033405;28;20857;-70
2022/11/17 10:08:15;;;;;;;12.37;5.40;;;;;;;6.21;85.60;99796.59;5033175;28;20815;-71
2022/11/17 10:10:44;;;;;;;12.67;5.20;;;;;;;6.25;85.52;99800.28;5032910;28;20815;-70
2022/11/17 10:13:23;;;;;;;11.87;5.47;;;;;;;6.28;86.05;99788.94;5032877;28;20483;-71
2022/11/17 10:15:54;;;;;;;16.40;6.30;;;;;;;6.26;86.23;99788.44;5032959;28;20818;-69
2022/11/17 10:18:21;;;;;;;18.80;6.30;;;;;;;6.19;85.99;99784.50;5033090;28;20438;-70
2022/11/17 10:20:49;;;;;;;13.67;5.47;;;;;;;6.24;86.04;99789.81;5033097;28;20466;-69
2022/11/17 10:23:18;;;;;;;13.70;5.67;;;;;;;6.15;86.84;99789.66;5032838;28;20482;-70
2022/11/17 10:25:46;;;;;;;14.90;5.33;;;;;;;6.09;86.22;99782.78;5032652;28;20933;-70
2022/11/17 10:28:27;;;;;;;15.57;5.43;;;;;;;6.08;85.85;99778.50;5033040;28;20541;-70
2022/11/17 10:30:56;;;;;;;18.07;7.23;;;;;;;6.02;86.70;99771.56;5032837;28;20514;-70
2022/11/17 10:33:37;;;;;;;13.37;5.80;;;;;;;5.97;87.13;99785.09;5032344;28;20561;-70
2022/11/17 10:36:15;;;;;;;15.37;6.50;;;;;;;6.12;87.00;99766.06;5032493;28;20447;-69
2022/11/17 10:38:45;;;;;;;15.23;6.83;;;;;;;6.10;86.74;99762.84;5032564;28;20944;-73
2022/11/17 10:41:16;;;;;;;16.27;6.57;;;;;;;6.17;86.35;99759.81;5032617;28;20940;-70
2022/11/17 10:43:54;;;;;;;14.73;6.03;;;;;;;6.12;86.63;99762.59;5032580;28;20467;-69
2022/11/17 10:46:21;;;;;;;14.20;5.17;;;;;;;6.19;86.56;99752.25;5032458;28;20435;-69
2022/11/17 10:48:55;;;;;;;16.07;6.50;;;;;;;6.07;87.26;99748.13;5032125;28;20909;-71
2022/11/17 10:51:25;;;;;;;13.77;5.50;;;;;;;6.11;87.55;99755.59;5032588;28;20509;-72
2022/11/17 10:54:04;;;;;;;16.53;6.70;;;;;;;6.10;86.95;99754.00;5032368;28;20511;-70
2022/11/17 10:56:33;;;;;;;12.90;5.87;;;;;;;6.11;87.15;99742.97;5032002;28;20442;-70
2022/11/17 10:59:11;;;;;;;14.40;5.10;;;;;;;6.20;87.43;99733.16;5033377;28;20467;-69
2022/11/17 11:01:39;;;;;;;14.63;5.53;;;;;;;6.22;86.83;99739.03;5035927;28;20423;-70
2022/11/17 11:04:25;;;;;;;16.27;6.80;;;;;;;6.26;86.32;99731.19;5032488;28;20507;-71
2022/11/17 11:07:06;;;;;;;13.47;6.13;;;;;;;6.30;86.31;99724.91;5031892;28;20983;-70
2022/11/17 11:09:34;;;;;;;14.20;6.20;;;;;;;6.41;86.00;99732.81;5034357;28;20739;-69
2022/11/17 11:12:04;;;;;;;12.07;5.13;;;;;;;6.46;85.38;99724.66;5035313;28;20497;-70
2022/11/17 11:14:41;;;;;;;12.77;6.70;;;;;;;6.42;85.40;99726.31;5034206;28;20473;-70
2022/11/17 11:17:11;;;;;;;11.40;5.23;;;;;;;6.45;84.98;99725.75;5034626;28;20545;-70
2022/11/17 11:19:39;;;;;;;14.50;6.20;;;;;;;6.39;84.55;99726.94;5035480;28;20438;-70
2022/11/17 11:22:24;;;;;;;17.97;6.60;;;;;;;6.32;85.27;99720.03;5033048;28;20455;-70
2022/11/17 11:24:57;;;;;;;11.23;4.90;;;;;;;6.36;85.69;99722.94;5034783;28;20431;-70
2022/11/17 11:27:47;;;;;;;12.53;5.77;;;;;;;6.41;84.91;99725.53;5035526;28;20443;-70
2022/11/17 11:30:16;;;;;;;12.87;6.30;;;;;;;6.25;85.31;99708.88;5034031;28;21534;-70
2022/11/17 11:32:57;;;;;;;13.57;5.73;;;;;;;6.26;85.66;99710.47;5028563;28;20573;-70
2022/11/17 11:35:39;;;;;;;12.87;5.27;;;;;;;6.24;85.96;99709.97;5035822;28;20537;-70
2022/11/17 11:40:58;;;;;;;14.20;5.57;;;;;;;6.43;85.33;99693.78;5053059;28;21021;-69
2022/11/17 11:43:35;;;;;;;14.97;5.40;;;;;;;6.43;85.42;99679.53;5039703;28;20533;-69
2022/11/17 11:46:11;;;;;;;12.87;5.63;;;;;;;6.48;85.28;99692.88;5044832;28;20985;-69
2022/11/17 11:48:40;;;;;;;13.80;5.27;;;;;;;6.40;85.09;99694.34;5073199;28;20546;-69
2022/11/17 11:51:14;;;;;;;13.80;5.90;;;;;;;6.42;85.18;99685.97;5047364;28;20459;-69
2022/11/17 11:53:47;;;;;;;19.30;5.80;;;;;;;6.47;84.80;99685.91;5037025;28;20467;-69
2022/11/17 11:56:22;;;;;;;13.00;5.57;;;;;;;6.52;84.53;99673.16;5044074;28;20468;-69
2022/11/17 11:58:57;;;;;;;13.50;5.50;;;;;;;6.50;84.64;99682.63;5055270;28;20504;-69
2022/11/17 12:01:26;;;;;;;11.83;5.43;;;;;;;6.52;84.88;99683.13;5053680;28;20954;-69
2022/11/17 12:04:07;;;;;;;11.30;4.63;;;;;;;6.45;84.71;99694.25;5054912;28;20529;-67
2022/11/17 12:06:42;;;;;;;15.17;5.30;;;;;;;6.38;84.30;99685.00;5052921;28;20501;-68
2022/11/17 12:09:32;;;;;;;10.70;5.40;;;;;;;6.39;85.33;99689.28;5055112;28;20486;-70
2022/11/17 12:12:06;;;;;;;11.10;3.87;;;;;;;6.32;84.57;99687.75;5052809;28;20840;-69
2022/11/17 12:14:36;;;;;;;15.47;5.40;;;;;;;6.24;85.37;99677.69;5042211;28;20486;-72